Time;durP1;ratioP1;P1;durP2;ratioP2;P2;SDS_P1;SDS_P2;PMS_P1;PMS_P2;Temp;Humidity;BMP_temperature;BMP_pressure;BME280_temperature;BME280_humidity;BME280_pressure;Samples;Min_cycle;Max_cycle;Signal;HPM_P1;HPM_P2
2022/12/24 00:01:09;;;;;;;3.77;2.00;;;11.80;82.80;;;;;;5045258;28;20192;-75
2022/12/24 00:03:36;;;;;;;5.47;2.73;;;11.90;83.00;;;;;;5044433;28;20212;-73
2022/12/24 00:06:12;;;;;;;6.67;2.40;;;11.90;83.00;;;;;;5046337;28;20188;-73
2022/12/24 00:08:40;;;;;;;8.93;2.67;;;11.80;83.40;;;;;;5044207;28;21021;-73
2022/12/24 00:11:06;;;;;;;7.03;2.17;;;11.90;83.40;;;;;;5048702;28;20455;-75
2022/12/24 00:13:31;;;;;;;10.00;2.67;;;11.90;83.30;;;;;;5047293;28;20510;-75
2022/12/24 00:15:57;;;;;;;4.90;1.90;;;11.90;83.00;;;;;;5049561;28;20522;-74
2022/12/24 00:18:22;;;;;;;5.03;2.53;;;11.90;82.50;;;;;;5042500;28;20191;-74
2022/12/24 00:20:49;;;;;;;5.37;2.73;;;11.90;82.80;;;;;;5042637;28;20181;-74
2022/12/24 00:23:16;;;;;;;7.57;2.17;;;12.00;82.70;;;;;;5048629;28;20212;-75
2022/12/24 00:25:41;;;;;;;4.90;2.33;;;12.00;82.70;;;;;;5048030;28;20415;-75
2022/12/24 00:28:07;;;;;;;9.73;2.57;;;11.90;83.00;;;;;;5044287;28;20535;-74
2022/12/24 00:30:32;;;;;;;5.87;2.07;;;11.80;83.60;;;;;;5049735;28;20185;-75
2022/12/24 00:32:58;;;;;;;3.70;2.07;;;11.80;83.60;;;;;;5047199;28;20789;-74
2022/12/24 00:35:24;;;;;;;4.50;1.80;;;11.70;83.80;;;;;;5044376;28;20317;-73
2022/12/24 00:37:49;;;;;;;7.30;2.10;;;11.70;84.00;;;;;;5040322;28;20181;-73
2022/12/24 00:40:16;;;;;;;4.27;1.70;;;11.70;83.70;;;;;;5044724;28;20242;-74
2022/12/24 00:42:42;;;;;;;7.40;2.07;;;11.80;83.00;;;;;;5044993;28;20654;-75
2022/12/24 00:45:08;;;;;;;3.67;1.60;;;11.80;82.80;;;;;;5042976;28;20420;-74
2022/12/24 00:47:34;;;;;;;5.33;1.90;;;11.90;82.50;;;;;;5048988;28;20227;-73
2022/12/24 00:50:01;;;;;;;7.73;2.00;;;11.90;82.10;;;;;;5049935;28;20680;-73
2022/12/24 00:52:26;;;;;;;5.30;2.30;;;11.90;81.90;;;;;;5052119;28;20689;-74
2022/12/24 00:54:52;;;;;;;8.87;2.10;;;11.90;81.70;;;;;;5046325;28;20538;-75
2022/12/24 00:57:18;;;;;;;6.83;1.77;;;11.90;81.50;;;;;;5048769;28;20244;-73
2022/12/24 00:59:43;;;;;;;7.80;2.90;;;11.80;81.10;;;;;;5047557;28;20189;-75
2022/12/24 01:02:09;;;;;;;11.30;2.13;;;11.90;80.90;;;;;;5040680;28;20212;-74
2022/12/24 01:07:19;;;;;;;4.60;2.07;;;11.90;80.80;;;;;;5040625;28;20191;-74
2022/12/24 01:09:44;;;;;;;7.13;1.77;;;11.90;81.20;;;;;;5049080;28;20471;-74
2022/12/24 01:12:10;;;;;;;10.80;2.57;;;11.90;81.50;;;;;;5047509;28;20212;-76
2022/12/24 01:14:37;;;;;;;4.20;1.87;;;11.90;81.80;;;;;;5041499;28;20254;-74
2022/12/24 01:17:03;;;;;;;5.70;2.00;;;11.80;82.40;;;;;;5041790;28;20674;-74
2022/12/24 01:19:29;;;;;;;5.90;2.10;;;11.80;82.40;;;;;;5036104;28;20459;-74
2022/12/24 01:21:54;;;;;;;5.00;2.23;;;11.70;82.50;;;;;;5040860;28;20475;-75
2022/12/24 01:24:20;;;;;;;4.60;2.20;;;11.70;83.10;;;;;;5039811;28;20262;-75
2022/12/24 01:26:45;;;;;;;8.50;1.97;;;11.70;83.10;;;;;;5044191;28;20585;-74
2022/12/24 01:29:11;;;;;;;6.53;2.07;;;11.60;83.40;;;;;;5036771;28;20920;-74
2022/12/24 01:31:37;;;;;;;6.53;1.70;;;11.60;83.40;;;;;;5042166;28;20551;-74
2022/12/24 01:34:02;;;;;;;7.03;2.20;;;11.60;83.80;;;;;;5036614;28;20221;-73
2022/12/24 01:36:28;;;;;;;4.13;1.60;;;11.50;84.40;;;;;;5043527;28;20264;-74
2022/12/24 01:38:53;;;;;;;2.63;1.57;;;11.60;84.40;;;;;;5041153;28;20583;-74
2022/12/24 01:44:27;;;;;;;5.43;2.10;;;11.60;84.70;;;;;;5038302;28;20277;-74
2022/12/24 01:47:16;;;;;;;5.77;2.30;;;11.70;84.30;;;;;;5042927;28;20897;-73
2022/12/24 01:49:47;;;;;;;8.73;3.00;;;11.80;84.10;;;;;;5040773;28;20478;-74
2022/12/24 01:52:22;;;;;;;6.77;2.73;;;11.80;84.30;;;;;;5039610;28;20463;-74
2022/12/24 01:55:07;;;;;;;9.10;2.27;;;11.70;85.60;;;;;;5037794;28;20457;-74
2022/12/24 01:57:45;;;;;;;8.07;2.67;;;11.60;86.50;;;;;;5040689;28;20444;-73
2022/12/24 02:00:13;;;;;;;10.43;2.60;;;11.40;87.80;;;;;;5045674;28;20422;-73
2022/12/24 02:02:42;;;;;;;14.30;3.23;;;11.30;88.60;;;;;;5040557;28;20451;-73
2022/12/24 02:05:21;;;;;;;13.20;2.67;;;11.20;89.30;;;;;;5041288;28;20438;-74
2022/12/24 02:07:48;;;;;;;9.00;3.00;;;11.20;89.90;;;;;;5035998;28;20466;-74
2022/12/24 02:10:15;;;;;;;9.67;3.20;;;11.20;90.20;;;;;;5038601;28;21046;-73
2022/12/24 02:12:42;;;;;;;8.80;3.00;;;11.20;90.50;;;;;;5041196;28;20446;-72
2022/12/24 02:15:11;;;;;;;10.83;2.60;;;11.10;90.50;;;;;;5045081;28;20431;-73
2022/12/24 02:17:45;;;;;;;7.17;3.27;;;11.00;90.90;;;;;;5043650;28;20411;-74
2022/12/24 02:20:51;;;;;;;7.50;2.43;;;11.00;91.10;;;;;;5041666;28;20473;-73
2022/12/24 02:24:03;;;;;;;8.90;2.80;;;10.80;91.30;;;;;;5037587;28;20546;-73
2022/12/24 02:26:51;;;;;;;16.50;3.33;;;10.70;91.50;;;;;;4998760;28;20468;-74
2022/12/24 02:29:53;;;;;;;9.73;2.40;;;10.70;91.60;;;;;;4999734;28;20464;-73
2022/12/24 02:32:26;;;;;;;8.03;2.90;;;10.60;91.70;;;;;;5000746;28;20926;-73
2022/12/24 02:35:18;;;;;;;9.93;2.77;;;10.60;91.80;;;;;;4979026;28;20460;-73
2022/12/24 02:38:00;;;;;;;7.13;2.83;;;10.60;91.90;;;;;;4999671;28;20423;-73
2022/12/24 02:40:35;;;;;;;5.80;2.37;;;10.60;92.00;;;;;;5006431;28;20417;-72
2022/12/24 02:43:09;;;;;;;8.50;2.63;;;10.60;92.10;;;;;;4997371;28;20492;-73
2022/12/24 02:45:38;;;;;;;6.40;2.50;;;10.60;92.20;;;;;;5004809;28;20425;-72
2022/12/24 02:48:05;;;;;;;5.57;2.60;;;10.60;92.10;;;;;;4996160;28;20469;-74
2022/12/24 02:50:31;;;;;;;9.83;2.70;;;10.70;91.80;;;;;;5003598;28;20815;-74
2022/12/24 02:52:56;;;;;;;15.00;2.37;;;10.70;91.70;;;;;;5001830;28;20466;-72
2022/12/24 02:55:37;;;;;;;9.83;3.10;;;10.60;91.50;;;;;;5015920;28;20238;-74
2022/12/24 02:58:40;;;;;;;6.20;2.57;;;10.60;91.50;;;;;;4996439;28;20210;-73
2022/12/24 03:01:30;;;;;;;8.90;2.87;;;10.60;91.40;;;;;;5020175;28;20462;-73
2022/12/24 03:04:03;;;;;;;3.60;2.17;;;10.60;91.40;;;;;;5042653;28;20943;-73
2022/12/24 03:06:37;;;;;;;10.10;3.00;;;10.60;91.50;;;;;;5038893;28;20415;-73
2022/12/24 03:09:31;;;;;;;4.47;2.03;;;10.60;91.50;;;;;;5039160;28;20533;-73
2022/12/24 03:12:04;;;;;;;7.80;2.93;;;10.60;91.20;;;;;;5023948;28;20822;-74
2022/12/24 03:14:33;;;;;;;13.23;3.10;;;10.70;91.10;;;;;;5048990;28;20415;-72
2022/12/24 03:17:01;;;;;;;6.63;2.47;;;10.70;91.10;;;;;;5040739;28;20498;-74
2022/12/24 03:19:27;;;;;;;6.10;2.60;;;10.70;90.80;;;;;;5043530;28;20442;-73
2022/12/24 03:21:56;;;;;;;8.73;2.97;;;10.80;90.80;;;;;;5037464;28;20549;-74
2022/12/24 03:24:22;;;;;;;14.10;2.90;;;10.70;90.70;;;;;;5048461;28;20435;-73
2022/12/24 03:26:49;;;;;;;7.70;2.97;;;10.80;90.70;;;;;;5048155;28;20774;-72
2022/12/24 03:29:16;;;;;;;11.47;2.70;;;10.80;90.70;;;;;;5044665;28;20469;-73
2022/12/24 03:31:47;;;;;;;10.73;3.17;;;10.70;90.70;;;;;;5044353;28;20549;-72
2022/12/24 03:34:14;;;;;;;9.60;2.83;;;10.70;90.60;;;;;;5042852;28;20429;-72
2022/12/24 03:36:41;;;;;;;7.43;2.73;;;10.70;90.60;;;;;;5040378;28;20423;-72
2022/12/24 03:39:07;;;;;;;7.87;3.07;;;10.70;90.70;;;;;;5043160;28;20460;-73
2022/12/24 03:41:32;;;;;;;7.83;2.73;;;10.70;90.90;;;;;;5040729;28;20453;-72
2022/12/24 03:43:58;;;;;;;7.73;2.20;;;10.70;90.90;;;;;;5036760;28;20906;-73
2022/12/24 03:46:23;;;;;;;13.20;2.60;;;10.80;91.10;;;;;;5040597;28;20711;-71
2022/12/24 03:48:49;;;;;;;6.23;2.80;;;10.80;91.00;;;;;;5036588;28;20209;-74
2022/12/24 03:51:21;;;;;;;9.67;2.50;;;10.70;90.60;;;;;;5039041;28;20258;-72
2022/12/24 03:53:46;;;;;;;13.60;3.13;;;10.70;90.00;;;;;;5036763;28;20186;-73
2022/12/24 03:56:12;;;;;;;4.83;2.40;;;10.70;89.30;;;;;;5039018;28;20443;-71
2022/12/24 03:58:38;;;;;;;10.73;2.70;;;10.80;88.40;;;;;;5043944;28;20189;-74
2022/12/24 04:01:04;;;;;;;11.77;3.50;;;10.80;87.60;;;;;;5043454;28;20197;-73
2022/12/24 04:03:29;;;;;;;8.07;2.73;;;10.90;86.80;;;;;;5043114;28;20208;-73
2022/12/24 04:06:05;;;;;;;8.10;2.43;;;10.90;86.20;;;;;;5042018;28;20267;-73
2022/12/24 04:08:30;;;;;;;11.90;2.73;;;11.00;85.90;;;;;;5040568;28;20595;-73
2022/12/24 04:10:56;;;;;;;13.13;3.20;;;11.00;86.60;;;;;;5046057;28;20452;-71
2022/12/24 04:13:22;;;;;;;6.63;2.97;;;10.90;87.10;;;;;;5044360;28;20204;-72
2022/12/24 04:16:06;;;;;;;5.33;2.50;;;10.80;87.70;;;;;;5047693;28;20184;-72
2022/12/24 04:18:32;;;;;;;7.90;3.43;;;10.70;88.60;;;;;;5041913;28;20184;-73
2022/12/24 04:20:57;;;;;;;9.17;3.30;;;10.60;89.30;;;;;;5046376;28;20432;-71
2022/12/24 04:23:23;;;;;;;9.37;2.77;;;10.50;90.00;;;;;;5047351;28;20591;-74
2022/12/24 04:25:50;;;;;;;10.80;2.93;;;10.50;90.30;;;;;;5051750;28;20660;-73
2022/12/24 04:28:15;;;;;;;6.73;2.63;;;10.40;90.50;;;;;;5042999;28;20968;-73
2022/12/24 04:30:41;;;;;;;10.73;3.00;;;10.40;90.70;;;;;;5047623;28;20415;-73
2022/12/24 04:33:07;;;;;;;10.43;2.93;;;10.40;90.50;;;;;;5042829;28;20205;-73
2022/12/24 04:35:33;;;;;;;11.07;2.80;;;10.30;90.30;;;;;;5046450;28;20600;-73
2022/12/24 04:37:59;;;;;;;10.77;2.87;;;10.30;90.40;;;;;;5044672;28;20423;-73
2022/12/24 04:40:25;;;;;;;10.27;2.63;;;10.30;90.40;;;;;;5039828;28;20208;-73
2022/12/24 04:42:50;;;;;;;6.20;2.17;;;10.40;90.50;;;;;;5041684;28;20501;-72
2022/12/24 04:45:16;;;;;;;10.13;2.73;;;10.40;90.60;;;;;;5044781;28;20635;-72
2022/12/24 04:47:42;;;;;;;7.10;2.67;;;10.40;90.80;;;;;;5042928;28;20308;-74
2022/12/24 04:50:08;;;;;;;7.07;3.80;;;10.30;90.80;;;;;;5040822;28;20550;-74
2022/12/24 04:52:34;;;;;;;6.67;2.53;;;10.30;91.10;;;;;;5038834;28;20262;-73
2022/12/24 04:54:59;;;;;;;8.70;3.17;;;10.20;91.20;;;;;;5039151;28;20420;-73
2022/12/24 04:57:25;;;;;;;11.37;2.97;;;10.20;91.30;;;;;;5048507;28;20195;-74
2022/12/24 04:59:50;;;;;;;4.77;2.40;;;10.10;91.50;;;;;;5041534;28;20193;-74
2022/12/24 05:02:16;;;;;;;10.93;3.20;;;10.10;91.70;;;;;;5044013;28;20569;-73
2022/12/24 05:04:42;;;;;;;11.43;2.93;;;10.00;91.80;;;;;;5040541;28;20251;-73
2022/12/24 05:07:07;;;;;;;10.47;3.30;;;10.00;91.90;;;;;;5044332;28;20181;-73
2022/12/24 05:09:33;;;;;;;9.50;2.70;;;9.90;92.00;;;;;;5041614;28;20209;-74
2022/12/24 05:11:58;;;;;;;8.87;2.90;;;9.90;92.20;;;;;;5044566;28;20216;-73
2022/12/24 05:14:24;;;;;;;9.60;2.87;;;9.80;92.30;;;;;;5043533;28;20267;-74
2022/12/24 05:16:49;;;;;;;6.87;2.23;;;9.90;92.30;;;;;;5047975;28;20192;-74
2022/12/24 05:19:15;;;;;;;11.77;2.87;;;9.90;92.20;;;;;;5045065;28;20276;-74
2022/12/24 05:21:40;;;;;;;13.77;3.57;;;9.90;91.90;;;;;;5047778;28;20211;-75
2022/12/24 05:26:57;;;;;;;10.63;3.00;;;9.90;91.70;;;;;;5045389;28;20327;-74
2022/12/24 05:29:23;;;;;;;5.60;2.37;;;9.90;91.30;;;;;;5046122;28;20573;-73
2022/12/24 05:31:49;;;;;;;9.33;3.27;;;10.00;90.70;;;;;;5047341;28;20460;-73
2022/12/24 05:34:15;;;;;;;8.07;2.57;;;10.10;90.20;;;;;;5051358;28;20423;-74
2022/12/24 05:36:42;;;;;;;6.77;2.20;;;10.10;89.60;;;;;;5042952;28;20192;-73
2022/12/24 05:39:13;;;;;;;7.40;2.83;;;10.20;88.90;;;;;;5041962;28;20427;-73
2022/12/24 05:41:38;;;;;;;7.97;2.53;;;10.30;88.40;;;;;;5038204;28;20436;-74
2022/12/24 05:44:04;;;;;;;8.50;2.47;;;10.30;88.10;;;;;;5044944;28;20451;-74
2022/12/24 05:46:30;;;;;;;5.30;2.13;;;10.30;87.70;;;;;;5040576;28;20188;-74
2022/12/24 05:48:55;;;;;;;11.07;3.07;;;10.30;87.00;;;;;;5053072;28;20220;-74
2022/12/24 05:51:21;;;;;;;7.70;2.50;;;10.40;86.60;;;;;;5055069;28;20238;-74
2022/12/24 05:53:48;;;;;;;7.93;2.17;;;10.40;86.20;;;;;;5049773;28;20188;-75
2022/12/24 05:56:20;;;;;;;7.00;2.50;;;10.40;85.70;;;;;;5052144;28;20466;-74
2022/12/24 05:58:46;;;;;;;5.83;2.80;;;10.40;85.70;;;;;;5057401;28;20434;-75
2022/12/24 06:01:13;;;;;;;7.90;3.20;;;10.40;85.50;;;;;;5050513;28;20435;-74
2022/12/24 06:03:39;;;;;;;11.57;3.03;;;10.40;85.00;;;;;;5055509;28;20584;-75
2022/12/24 06:06:08;;;;;;;9.50;2.70;;;10.50;84.70;;;;;;5056931;28;20809;-74
2022/12/24 06:08:34;;;;;;;7.50;2.60;;;10.50;84.60;;;;;;5052935;28;20470;-74
2022/12/24 06:11:04;;;;;;;6.03;2.27;;;10.50;84.30;;;;;;5051683;28;20438;-73
2022/12/24 06:13:30;;;;;;;5.83;2.33;;;10.50;84.30;;;;;;5044180;28;20458;-73
2022/12/24 06:15:57;;;;;;;9.00;2.80;;;10.60;84.30;;;;;;5050764;28;20415;-73
2022/12/24 06:18:23;;;;;;;7.30;2.67;;;10.60;84.10;;;;;;5040917;28;20251;-74
2022/12/24 06:20:54;;;;;;;12.40;2.97;;;10.60;84.10;;;;;;5043303;28;20446;-74
2022/12/24 06:23:20;;;;;;;8.03;2.90;;;10.60;84.10;;;;;;5045130;28;20472;-72
2022/12/24 06:25:46;;;;;;;12.63;2.50;;;10.60;84.10;;;;;;5049795;28;20534;-73
2022/12/24 06:28:13;;;;;;;12.83;2.50;;;10.50;84.10;;;;;;5048761;28;20539;-73
2022/12/24 06:30:38;;;;;;;6.20;2.40;;;10.40;84.10;;;;;;5056840;28;20430;-72
2022/12/24 06:33:04;;;;;;;8.00;2.63;;;10.50;84.10;;;;;;5047905;28;20468;-73
2022/12/24 06:35:31;;;;;;;9.67;2.80;;;10.50;83.80;;;;;;5048360;28;20310;-72
2022/12/24 06:37:56;;;;;;;7.20;3.03;;;10.60;84.00;;;;;;5044258;28;20189;-73
2022/12/24 06:40:22;;;;;;;6.97;3.13;;;10.60;84.60;;;;;;5048030;28;20462;-73
2022/12/24 06:42:47;;;;;;;10.20;2.50;;;10.50;84.70;;;;;;5036334;28;20288;-72
2022/12/24 06:45:13;;;;;;;8.63;2.97;;;10.50;84.70;;;;;;5043947;28;20212;-72
2022/12/24 06:47:38;;;;;;;7.17;2.80;;;10.40;84.90;;;;;;5043128;28;20194;-74
2022/12/24 06:50:05;;;;;;;6.17;2.30;;;10.40;85.50;;;;;;5047725;28;20274;-73
2022/12/24 06:52:30;;;;;;;11.50;2.73;;;10.40;85.70;;;;;;5037789;28;20232;-73
2022/12/24 06:54:56;;;;;;;11.80;3.20;;;10.40;86.00;;;;;;5036839;28;20519;-74
2022/12/24 06:57:21;;;;;;;5.50;2.40;;;10.50;86.20;;;;;;5042145;28;20248;-75
2022/12/24 06:59:47;;;;;;;15.70;3.20;;;10.50;86.30;;;;;;5042176;28;20191;-72
2022/12/24 07:02:13;;;;;;;14.13;2.90;;;10.50;86.50;;;;;;5040649;28;20215;-74
2022/12/24 07:04:38;;;;;;;15.00;2.90;;;10.50;86.30;;;;;;5046843;28;20187;-74
2022/12/24 07:07:04;;;;;;;7.90;2.53;;;10.40;86.50;;;;;;5039100;28;20192;-74
2022/12/24 07:09:30;;;;;;;9.03;2.87;;;10.40;86.60;;;;;;5043412;28;20200;-74
2022/12/24 07:11:56;;;;;;;9.40;2.90;;;10.40;86.50;;;;;;5035051;28;20208;-73
2022/12/24 07:14:22;;;;;;;5.57;2.50;;;10.30;86.30;;;;;;5042505;28;20423;-72
2022/12/24 07:16:48;;;;;;;7.80;2.80;;;10.30;86.50;;;;;;5039712;28;20216;-73
2022/12/24 07:19:14;;;;;;;8.20;3.30;;;10.40;86.50;;;;;;5044720;28;20701;-72
2022/12/24 07:21:40;;;;;;;13.57;2.70;;;10.40;86.20;;;;;;5041084;28;20430;-74
2022/12/24 07:24:06;;;;;;;5.83;2.20;;;10.40;85.90;;;;;;5042458;28;20838;-74
2022/12/24 07:26:31;;;;;;;9.87;2.83;;;10.50;85.20;;;;;;5039615;28;20185;-72
2022/12/24 07:28:57;;;;;;;6.70;2.63;;;10.50;84.70;;;;;;5042513;28;20466;-73
2022/12/24 07:31:23;;;;;;;6.70;2.20;;;10.60;84.40;;;;;;5043235;28;20215;-75
2022/12/24 07:33:49;;;;;;;6.30;2.57;;;10.60;84.30;;;;;;5046740;28;20205;-73
2022/12/24 07:36:18;;;;;;;9.77;2.67;;;10.60;84.30;;;;;;5046726;28;20267;-73
2022/12/24 07:38:44;;;;;;;8.00;2.77;;;10.60;84.60;;;;;;5047051;28;20498;-72
2022/12/24 07:41:10;;;;;;;12.73;2.83;;;10.60;84.70;;;;;;5043849;28;20514;-73
2022/12/24 07:43:35;;;;;;;7.10;2.67;;;10.60;84.90;;;;;;5040107;28;20295;-74
2022/12/24 07:46:01;;;;;;;8.57;3.00;;;10.60;84.70;;;;;;5042613;28;20445;-73
2022/12/24 07:48:28;;;;;;;8.47;3.33;;;10.70;84.70;;;;;;5040798;28;20208;-75
2022/12/24 07:50:55;;;;;;;13.00;3.43;;;10.60;85.00;;;;;;5046409;28;20200;-73
2022/12/24 07:53:22;;;;;;;10.80;2.70;;;10.60;85.30;;;;;;5046635;28;20486;-75
2022/12/24 07:55:47;;;;;;;8.40;3.00;;;10.50;85.60;;;;;;5048790;28;20499;-74
2022/12/24 07:58:13;;;;;;;11.37;2.97;;;10.60;85.90;;;;;;5050049;28;20510;-74
2022/12/24 08:00:39;;;;;;;13.77;4.20;;;10.50;85.90;;;;;;5048689;28;20182;-74
2022/12/24 08:03:04;;;;;;;7.47;3.20;;;10.60;86.20;;;;;;5046585;28;20282;-73
2022/12/24 08:05:35;;;;;;;6.83;3.10;;;10.60;86.30;;;;;;5055443;28;20180;-74
2022/12/24 08:08:01;;;;;;;8.53;3.03;;;10.60;86.30;;;;;;5051931;28;20173;-73
2022/12/24 08:10:27;;;;;;;7.53;3.00;;;10.60;86.00;;;;;;5048114;28;20458;-74
2022/12/24 08:12:52;;;;;;;8.00;3.10;;;10.60;85.70;;;;;;5049680;28;20470;-72
2022/12/24 08:15:18;;;;;;;12.70;3.70;;;10.50;85.70;;;;;;5052221;28;20501;-72
2022/12/24 08:17:44;;;;;;;14.27;3.93;;;10.40;85.90;;;;;;5045818;28;20276;-75
2022/12/24 08:20:10;;;;;;;7.97;3.17;;;10.30;86.30;;;;;;5051915;28;20273;-73
2022/12/24 08:22:36;;;;;;;6.80;3.20;;;10.30;86.30;;;;;;5043592;28;20207;-75
2022/12/24 08:25:01;;;;;;;10.63;3.40;;;10.20;86.60;;;;;;5048293;28;20433;-74
2022/12/24 08:27:27;;;;;;;8.90;3.67;;;10.20;86.60;;;;;;5048117;28;20932;-73
2022/12/24 08:29:52;;;;;;;6.63;3.03;;;10.30;84.40;;;;;;5045410;28;20215;-74
2022/12/24 08:32:18;;;;;;;5.90;2.73;;;10.40;83.60;;;;;;5051648;28;20212;-72
2022/12/24 08:34:43;;;;;;;12.00;3.30;;;10.60;82.80;;;;;;5049397;28;20259;-73
2022/12/24 08:37:09;;;;;;;13.37;2.83;;;10.70;82.20;;;;;;5052154;28;20628;-74
2022/12/24 08:39:35;;;;;;;14.23;3.57;;;10.70;81.90;;;;;;5044571;28;20189;-72
2022/12/24 08:42:00;;;;;;;6.87;2.63;;;10.80;81.20;;;;;;5049917;28;20204;-74
2022/12/24 08:44:26;;;;;;;10.10;2.87;;;10.90;80.30;;;;;;5052638;28;20184;-75
2022/12/24 08:46:51;;;;;;;6.77;3.30;;;10.90;80.00;;;;;;5052917;28;20599;-73
2022/12/24 08:49:17;;;;;;;5.50;2.67;;;10.90;80.30;;;;;;5052203;28;20216;-74
2022/12/24 08:51:42;;;;;;;12.53;2.90;;;10.90;80.20;;;;;;5045117;28;20200;-74
2022/12/24 08:54:08;;;;;;;7.07;2.80;;;10.90;79.70;;;;;;5051715;28;20255;-73
2022/12/24 08:56:34;;;;;;;12.57;2.70;;;10.90;79.50;;;;;;5053025;28;20543;-75
2022/12/24 08:59:00;;;;;;;10.33;2.97;;;11.00;79.30;;;;;;5051092;28;20185;-75
2022/12/24 09:01:26;;;;;;;20.77;3.20;;;11.00;79.30;;;;;;5047764;28;20189;-75
2022/12/24 09:03:51;;;;;;;7.20;2.70;;;11.00;79.30;;;;;;5048614;28;20442;-75
2022/12/24 09:06:17;;;;;;;10.53;3.50;;;11.00;79.50;;;;;;5053686;28;20191;-73
2022/12/24 09:08:43;;;;;;;11.53;2.80;;;11.00;79.30;;;;;;5049765;28;20200;-76
2022/12/24 09:11:12;;;;;;;14.10;4.07;;;11.00;79.30;;;;;;5048389;28;20303;-74
2022/12/24 09:13:37;;;;;;;11.93;3.17;;;11.00;79.60;;;;;;5045800;28;21123;-74
2022/12/24 09:16:03;;;;;;;10.87;2.53;;;11.00;79.50;;;;;;5053821;28;20423;-75
2022/12/24 09:18:29;;;;;;;12.30;2.87;;;11.00;79.30;;;;;;5055770;28;20177;-76
2022/12/24 09:21:03;;;;;;;10.07;3.47;;;11.00;79.50;;;;;;5063698;28;21722;-75
2022/12/24 09:23:29;;;;;;;9.90;2.80;;;11.10;79.60;;;;;;5054729;28;20468;-75
2022/12/24 09:25:55;;;;;;;12.73;3.60;;;11.10;79.50;;;;;;5060609;28;20423;-76
2022/12/24 09:28:21;;;;;;;12.27;3.30;;;11.00;79.70;;;;;;5048888;28;20432;-73
2022/12/24 09:31:01;;;;;;;8.80;3.57;;;11.10;79.90;;;;;;5055926;28;20423;-74
2022/12/24 09:33:29;;;;;;;10.23;3.23;;;11.10;79.70;;;;;;5054336;28;20458;-73
2022/12/24 09:35:55;;;;;;;8.63;3.37;;;11.10;80.30;;;;;;5050916;28;20424;-73
2022/12/24 09:38:21;;;;;;;10.47;3.40;;;11.10;79.90;;;;;;5049011;28;20522;-74
2022/12/24 09:40:47;;;;;;;10.60;3.13;;;11.10;79.90;;;;;;5049083;28;20777;-75
2022/12/24 09:43:19;;;;;;;7.50;2.87;;;11.10;79.90;;;;;;5041293;28;20902;-75
2022/12/24 09:46:04;;;;;;;6.87;3.00;;;11.10;79.90;;;;;;5046653;28;20422;-76
2022/12/24 09:48:33;;;;;;;10.33;2.90;;;11.00;80.20;;;;;;5043774;28;20440;-75
2022/12/24 09:51:18;;;;;;;10.33;3.50;;;11.00;80.30;;;;;;5047998;28;20428;-73
2022/12/24 09:53:55;;;;;;;12.80;2.77;;;11.00;80.60;;;;;;5038726;28;20869;-74
2022/12/24 09:56:30;;;;;;;13.90;3.10;;;11.00;80.60;;;;;;5045890;28;20507;-73
2022/12/24 09:59:00;;;;;;;7.77;3.43;;;11.00;80.50;;;;;;5039842;28;20426;-76
2022/12/24 10:01:29;;;;;;;6.73;3.20;;;11.00;80.20;;;;;;5040965;28;20419;-75
2022/12/24 10:04:21;;;;;;;10.67;3.77;;;11.00;80.00;;;;;;5043204;28;20439;-76
2022/12/24 10:07:04;;;;;;;12.07;3.60;;;11.00;79.90;;;;;;5035911;28;20455;-76
2022/12/24 10:09:42;;;;;;;15.40;3.33;;;11.10;79.60;;;;;;5043818;28;20454;-73
2022/12/24 10:12:32;;;;;;;11.70;2.90;;;11.20;79.50;;;;;;5040982;28;20454;-73
2022/12/24 10:15:28;;;;;;;8.70;2.80;;;11.30;79.20;;;;;;5041946;28;20408;-76
2022/12/24 10:18:09;;;;;;;10.70;2.90;;;11.30;79.00;;;;;;5048604;28;20425;-75
2022/12/24 10:20:57;;;;;;;10.00;3.07;;;11.30;78.60;;;;;;5054244;28;20435;-75
2022/12/24 10:23:33;;;;;;;20.97;3.70;;;11.30;78.90;;;;;;5048722;28;20468;-74
2022/12/24 10:26:14;;;;;;;10.60;2.87;;;11.30;78.70;;;;;;5049792;28;20430;-73
2022/12/24 10:29:01;;;;;;;11.53;3.47;;;11.40;78.70;;;;;;5048852;28;20463;-73
2022/12/24 10:31:30;;;;;;;5.37;2.80;;;11.40;78.60;;;;;;5044281;28;20435;-75
2022/12/24 10:34:13;;;;;;;8.37;3.30;;;11.40;79.00;;;;;;5040562;28;20810;-77
2022/12/24 10:36:39;;;;;;;12.60;3.07;;;11.50;78.90;;;;;;5042046;28;20421;-75
2022/12/24 10:39:15;;;;;;;17.73;4.10;;;11.50;78.60;;;;;;5044798;28;20431;-75
2022/12/24 10:41:41;;;;;;;5.77;3.20;;;11.50;79.00;;;;;;5045417;28;20219;-74
2022/12/24 10:44:16;;;;;;;6.13;3.23;;;11.50;79.00;;;;;;5043669;28;20866;-74
2022/12/24 10:46:43;;;;;;;11.63;2.93;;;11.50;79.00;;;;;;5048397;28;20199;-75
2022/12/24 10:49:38;;;;;;;15.93;3.27;;;11.60;78.90;;;;;;5040035;28;20475;-74
2022/12/24 10:52:23;;;;;;;13.90;3.20;;;11.70;78.90;;;;;;5039435;28;20464;-74
2022/12/24 10:55:18;;;;;;;11.60;2.67;;;11.70;78.70;;;;;;5039857;28;20568;-75
2022/12/24 10:58:03;;;;;;;10.40;2.80;;;11.70;78.30;;;;;;5037414;28;20480;-75
2022/12/24 11:00:30;;;;;;;15.43;3.80;;;11.90;78.10;;;;;;5045270;28;20432;-75
2022/12/24 11:03:12;;;;;;;9.47;3.73;;;11.90;78.00;;;;;;5046793;28;20456;-74
2022/12/24 11:05:39;;;;;;;9.47;2.80;;;11.90;78.10;;;;;;5047926;28;20426;-74
2022/12/24 11:08:19;;;;;;;14.50;3.03;;;11.90;77.80;;;;;;5048637;28;20432;-76
2022/12/24 11:10:56;;;;;;;7.33;3.10;;;12.00;77.70;;;;;;5052923;28;20462;-75
2022/12/24 11:13:28;;;;;;;12.00;3.20;;;12.10;77.80;;;;;;5047411;28;20463;-76
2022/12/24 11:16:23;;;;;;;10.67;3.37;;;12.20;77.60;;;;;;5045422;28;20435;-73
2022/12/24 11:18:51;;;;;;;19.07;3.60;;;12.20;77.00;;;;;;5044317;28;20427;-75
2022/12/24 11:21:27;;;;;;;7.27;3.70;;;12.20;77.10;;;;;;5046080;28;20419;-76
2022/12/24 11:23:55;;;;;;;12.00;3.13;;;12.20;77.10;;;;;;5045052;28;21137;-74
2022/12/24 11:26:24;;;;;;;10.07;3.57;;;12.30;77.30;;;;;;5045454;28;20515;-75
2022/12/24 11:29:07;;;;;;;8.83;3.50;;;12.30;77.00;;;;;;5050473;28;20517;-74
2022/12/24 11:31:35;;;;;;;14.03;3.07;;;12.30;77.10;;;;;;5040320;28;20511;-76
2022/12/24 11:34:36;;;;;;;13.60;3.53;;;12.30;76.70;;;;;;5046901;28;20529;-76
2022/12/24 11:37:13;;;;;;;9.13;2.87;;;12.30;76.70;;;;;;5042330;28;20446;-75
2022/12/24 11:39:42;;;;;;;9.83;3.07;;;12.30;76.40;;;;;;5045052;28;20430;-75
2022/12/24 11:42:39;;;;;;;7.83;3.10;;;12.30;76.50;;;;;;5045607;28;20458;-75
2022/12/24 11:45:23;;;;;;;9.00;3.10;;;12.30;76.10;;;;;;5045067;28;20476;-74
2022/12/24 11:47:49;;;;;;;16.47;3.47;;;12.40;75.90;;;;;;5051123;28;20423;-75
2022/12/24 11:50:30;;;;;;;14.23;3.53;;;12.40;75.80;;;;;;5041663;28;20535;-74
2022/12/24 11:53:01;;;;;;;11.37;3.07;;;12.50;75.70;;;;;;5043547;28;20446;-75
2022/12/24 11:55:39;;;;;;;11.83;3.00;;;12.50;75.50;;;;;;5040688;28;20994;-75
2022/12/24 11:58:36;;;;;;;13.73;2.80;;;12.50;75.80;;;;;;5043018;28;20537;-75
2022/12/24 12:01:24;;;;;;;15.30;4.33;;;12.50;75.90;;;;;;5043859;28;20410;-74
2022/12/24 12:03:59;;;;;;;12.03;3.70;;;12.50;75.90;;;;;;5040418;28;20450;-75
2022/12/24 12:06:27;;;;;;;6.90;2.83;;;12.60;75.90;;;;;;5045738;28;20424;-75
2022/12/24 12:08:58;;;;;;;8.17;3.30;;;12.60;75.90;;;;;;5042233;28;20491;-75
2022/12/24 12:11:25;;;;;;;11.30;3.37;;;12.60;75.90;;;;;;5047467;28;20430;-77
2022/12/24 12:13:52;;;;;;;11.93;2.90;;;12.60;75.80;;;;;;5047469;28;20546;-74
2022/12/24 12:16:59;;;;;;;8.90;3.00;;;12.60;75.40;;;;;;5049720;28;20981;-75
2022/12/24 12:19:23;;;;;;;14.30;3.73;;;12.80;75.50;;;;;;5043772;28;20435;-75
2022/12/24 12:21:51;;;;;;;7.70;2.93;;;12.90;74.80;;;;;;5046219;28;20443;-73
2022/12/24 12:24:25;;;;;;;14.23;3.40;;;12.90;74.60;;;;;;5044482;28;20429;-75
2022/12/24 12:27:11;;;;;;;7.93;3.07;;;12.90;74.60;;;;;;5042816;28;20499;-75
2022/12/24 12:29:44;;;;;;;11.80;3.00;;;12.80;75.10;;;;;;5045986;28;20462;-75
2022/12/24 12:32:30;;;;;;;12.27;3.50;;;12.70;75.20;;;;;;5043257;28;20462;-75
2022/12/24 12:35:23;;;;;;;9.43;3.17;;;12.80;75.40;;;;;;5044397;28;20415;-74
2022/12/24 12:38:22;;;;;;;11.80;3.40;;;12.70;75.10;;;;;;5040487;28;20800;-75
2022/12/24 12:41:10;;;;;;;12.77;3.23;;;12.70;75.20;;;;;;5039501;28;20519;-75
2022/12/24 12:44:03;;;;;;;12.00;3.47;;;12.70;75.50;;;;;;5046468;28;20459;-74
2022/12/24 12:46:40;;;;;;;9.13;3.00;;;12.80;75.50;;;;;;5046692;28;20419;-73
2022/12/24 12:49:35;;;;;;;8.60;2.90;;;12.90;74.80;;;;;;5047712;28;20484;-75
2022/12/24 12:52:35;;;;;;;7.97;3.33;;;13.00;74.60;;;;;;5043493;28;20451;-76
2022/12/24 12:55:26;;;;;;;10.70;2.70;;;12.90;74.80;;;;;;5036376;28;20504;-77
2022/12/24 12:57:58;;;;;;;9.37;3.10;;;12.90;74.80;;;;;;5042100;28;20418;-76
2022/12/24 13:00:25;;;;;;;11.30;3.20;;;13.00;74.50;;;;;;5044326;28;20426;-74
2022/12/24 13:02:53;;;;;;;15.50;3.70;;;13.10;74.60;;;;;;5043491;28;20463;-74
2022/12/24 13:05:28;;;;;;;10.80;3.30;;;13.10;74.00;;;;;;5036650;28;20419;-74
2022/12/24 13:08:23;;;;;;;9.90;3.30;;;13.10;74.20;;;;;;5039836;28;20542;-73
2022/12/24 13:11:03;;;;;;;12.07;2.97;;;13.20;73.50;;;;;;5038531;28;20496;-73